sensor_id;sensor_type;location;lat;lon;timestamp;P1;durP1;ratioP1;P2;durP2;ratioP2
29452;SDS011;16424;50.956;5.320;2023-04-26T00:02:08;8.85;;;3.88;;
29452;SDS011;16424;50.956;5.320;2023-04-26T00:04:35;14.60;;;3.92;;
29452;SDS011;16424;50.956;5.320;2023-04-26T00:07:01;9.18;;;3.90;;
29452;SDS011;16424;50.956;5.320;2023-04-26T00:09:27;7.70;;;3.60;;
29452;SDS011;16424;50.956;5.320;2023-04-26T00:11:53;8.15;;;3.80;;
29452;SDS011;16424;50.956;5.320;2023-04-26T00:14:19;9.60;;;3.53;;
29452;SDS011;16424;50.956;5.320;2023-04-26T00:16:45;8.18;;;3.45;;
29452;SDS011;16424;50.956;5.320;2023-04-26T00:19:10;9.05;;;3.42;;
29452;SDS011;16424;50.956;5.320;2023-04-26T00:21:36;9.85;;;4.32;;
29452;SDS011;16424;50.956;5.320;2023-04-26T00:24:03;11.73;;;4.00;;
29452;SDS011;16424;50.956;5.320;2023-04-26T00:26:31;11.77;;;4.35;;
29452;SDS011;16424;50.956;5.320;2023-04-26T00:28:58;11.93;;;3.95;;
29452;SDS011;16424;50.956;5.320;2023-04-26T00:31:24;12.18;;;4.50;;
29452;SDS011;16424;50.956;5.320;2023-04-26T00:33:50;10.25;;;3.92;;
29452;SDS011;16424;50.956;5.320;2023-04-26T00:36:15;13.25;;;4.75;;
29452;SDS011;16424;50.956;5.320;2023-04-26T00:38:43;9.00;;;4.30;;
29452;SDS011;16424;50.956;5.320;2023-04-26T00:41:10;10.90;;;4.22;;
29452;SDS011;16424;50.956;5.320;2023-04-26T00:43:36;9.30;;;3.63;;
29452;SDS011;16424;50.956;5.320;2023-04-26T00:46:02;11.27;;;3.60;;
29452;SDS011;16424;50.956;5.320;2023-04-26T00:48:28;7.13;;;3.72;;
29452;SDS011;16424;50.956;5.320;2023-04-26T00:50:54;7.10;;;3.42;;
29452;SDS011;16424;50.956;5.320;2023-04-26T00:53:20;10.80;;;4.40;;
29452;SDS011;16424;50.956;5.320;2023-04-26T00:55:47;8.93;;;4.10;;
29452;SDS011;16424;50.956;5.320;2023-04-26T00:58:13;8.43;;;4.18;;
29452;SDS011;16424;50.956;5.320;2023-04-26T01:00:38;7.00;;;4.72;;
29452;SDS011;16424;50.956;5.320;2023-04-26T01:03:04;13.23;;;4.70;;
29452;SDS011;16424;50.956;5.320;2023-04-26T01:05:30;9.48;;;4.35;;
29452;SDS011;16424;50.956;5.320;2023-04-26T01:07:56;12.15;;;4.35;;
29452;SDS011;16424;50.956;5.320;2023-04-26T01:10:23;9.93;;;4.90;;
29452;SDS011;16424;50.956;5.320;2023-04-26T01:12:49;11.80;;;4.93;;
29452;SDS011;16424;50.956;5.320;2023-04-26T01:15:16;11.10;;;5.18;;
29452;SDS011;16424;50.956;5.320;2023-04-26T01:17:44;16.65;;;5.35;;
29452;SDS011;16424;50.956;5.320;2023-04-26T01:20:12;10.27;;;4.18;;
29452;SDS011;16424;50.956;5.320;2023-04-26T01:22:38;8.40;;;5.28;;
29452;SDS011;16424;50.956;5.320;2023-04-26T01:25:03;12.63;;;5.13;;
29452;SDS011;16424;50.956;5.320;2023-04-26T01:27:33;10.13;;;4.00;;
29452;SDS011;16424;50.956;5.320;2023-04-26T01:29:59;8.27;;;4.93;;
29452;SDS011;16424;50.956;5.320;2023-04-26T01:32:25;12.02;;;4.93;;
29452;SDS011;16424;50.956;5.320;2023-04-26T01:34:51;14.60;;;5.63;;
29452;SDS011;16424;50.956;5.320;2023-04-26T01:37:17;12.60;;;5.45;;
29452;SDS011;16424;50.956;5.320;2023-04-26T01:39:42;14.73;;;5.72;;
29452;SDS011;16424;50.956;5.320;2023-04-26T01:42:08;13.73;;;5.70;;
29452;SDS011;16424;50.956;5.320;2023-04-26T01:44:33;16.58;;;5.60;;
29452;SDS011;16424;50.956;5.320;2023-04-26T01:46:59;13.18;;;5.50;;
29452;SDS011;16424;50.956;5.320;2023-04-26T01:49:25;14.88;;;5.75;;
29452;SDS011;16424;50.956;5.320;2023-04-26T01:51:50;16.15;;;6.43;;
29452;SDS011;16424;50.956;5.320;2023-04-26T01:54:17;12.65;;;5.35;;
29452;SDS011;16424;50.956;5.320;2023-04-26T01:56:43;14.50;;;6.10;;
29452;SDS011;16424;50.956;5.320;2023-04-26T01:59:08;13.30;;;6.32;;
29452;SDS011;16424;50.956;5.320;2023-04-26T02:01:34;18.45;;;5.93;;
29452;SDS011;16424;50.956;5.320;2023-04-26T02:04:00;14.48;;;6.78;;
29452;SDS011;16424;50.956;5.320;2023-04-26T02:06:25;13.90;;;6.55;;
29452;SDS011;16424;50.956;5.320;2023-04-26T02:08:52;11.38;;;6.30;;
29452;SDS011;16424;50.956;5.320;2023-04-26T02:11:18;18.17;;;7.25;;
29452;SDS011;16424;50.956;5.320;2023-04-26T02:13:43;16.52;;;6.78;;
29452;SDS011;16424;50.956;5.320;2023-04-26T02:16:09;16.25;;;6.10;;
29452;SDS011;16424;50.956;5.320;2023-04-26T02:18:35;11.85;;;6.18;;
29452;SDS011;16424;50.956;5.320;2023-04-26T02:21:00;18.55;;;7.53;;
29452;SDS011;16424;50.956;5.320;2023-04-26T02:23:26;15.23;;;7.32;;
29452;SDS011;16424;50.956;5.320;2023-04-26T02:25:52;18.52;;;7.45;;
29452;SDS011;16424;50.956;5.320;2023-04-26T02:28:17;13.43;;;7.55;;
29452;SDS011;16424;50.956;5.320;2023-04-26T02:30:43;17.67;;;7.60;;
29452;SDS011;16424;50.956;5.320;2023-04-26T02:33:09;16.63;;;8.23;;
29452;SDS011;16424;50.956;5.320;2023-04-26T02:35:35;19.30;;;7.40;;
29452;SDS011;16424;50.956;5.320;2023-04-26T02:38:01;21.05;;;8.55;;
29452;SDS011;16424;50.956;5.320;2023-04-26T02:40:27;17.60;;;8.20;;
29452;SDS011;16424;50.956;5.320;2023-04-26T02:42:54;17.88;;;8.43;;
29452;SDS011;16424;50.956;5.320;2023-04-26T02:45:19;19.92;;;7.97;;
29452;SDS011;16424;50.956;5.320;2023-04-26T02:47:45;24.80;;;7.85;;
29452;SDS011;16424;50.956;5.320;2023-04-26T02:50:11;15.40;;;7.82;;
29452;SDS011;16424;50.956;5.320;2023-04-26T02:52:39;15.73;;;8.20;;
29452;SDS011;16424;50.956;5.320;2023-04-26T02:55:05;13.30;;;7.97;;
29452;SDS011;16424;50.956;5.320;2023-04-26T02:57:32;12.98;;;6.97;;
29452;SDS011;16424;50.956;5.320;2023-04-26T02:59:57;15.30;;;6.93;;
29452;SDS011;16424;50.956;5.320;2023-04-26T03:02:23;15.15;;;6.88;;
29452;SDS011;16424;50.956;5.320;2023-04-26T03:04:49;14.27;;;6.40;;
29452;SDS011;16424;50.956;5.320;2023-04-26T03:07:15;15.60;;;6.80;;
29452;SDS011;16424;50.956;5.320;2023-04-26T03:09:41;12.73;;;6.60;;
29452;SDS011;16424;50.956;5.320;2023-04-26T03:12:07;10.55;;;5.88;;
29452;SDS011;16424;50.956;5.320;2023-04-26T03:14:33;13.32;;;6.90;;
29452;SDS011;16424;50.956;5.320;2023-04-26T03:17:00;13.10;;;7.38;;
29452;SDS011;16424;50.956;5.320;2023-04-26T03:19:28;15.93;;;6.57;;
29452;SDS011;16424;50.956;5.320;2023-04-26T03:21:54;15.23;;;6.82;;
29452;SDS011;16424;50.956;5.320;2023-04-26T03:24:20;17.33;;;6.80;;
29452;SDS011;16424;50.956;5.320;2023-04-26T03:26:46;12.25;;;6.22;;
29452;SDS011;16424;50.956;5.320;2023-04-26T03:29:12;14.95;;;6.65;;
29452;SDS011;16424;50.956;5.320;2023-04-26T03:31:38;12.20;;;6.25;;
29452;SDS011;16424;50.956;5.320;2023-04-26T03:34:04;17.73;;;6.20;;
29452;SDS011;16424;50.956;5.320;2023-04-26T03:36:30;12.57;;;6.32;;
29452;SDS011;16424;50.956;5.320;2023-04-26T03:38:55;14.48;;;7.20;;
29452;SDS011;16424;50.956;5.320;2023-04-26T03:41:21;20.23;;;6.72;;
29452;SDS011;16424;50.956;5.320;2023-04-26T03:43:47;11.52;;;6.72;;
29452;SDS011;16424;50.956;5.320;2023-04-26T03:46:13;14.25;;;7.15;;
29452;SDS011;16424;50.956;5.320;2023-04-26T03:48:39;19.08;;;7.72;;
29452;SDS011;16424;50.956;5.320;2023-04-26T03:51:04;16.60;;;6.88;;
29452;SDS011;16424;50.956;5.320;2023-04-26T03:53:31;12.88;;;7.25;;
29452;SDS011;16424;50.956;5.320;2023-04-26T03:55:56;13.90;;;7.38;;
29452;SDS011;16424;50.956;5.320;2023-04-26T03:58:25;17.38;;;7.50;;
29452;SDS011;16424;50.956;5.320;2023-04-26T04:00:51;13.25;;;7.22;;
29452;SDS011;16424;50.956;5.320;2023-04-26T04:03:21;15.77;;;7.90;;
29452;SDS011;16424;50.956;5.320;2023-04-26T04:05:47;16.65;;;7.55;;
29452;SDS011;16424;50.956;5.320;2023-04-26T04:08:12;15.57;;;8.50;;
29452;SDS011;16424;50.956;5.320;2023-04-26T04:10:38;22.55;;;7.53;;
29452;SDS011;16424;50.956;5.320;2023-04-26T04:13:03;21.02;;;7.53;;
29452;SDS011;16424;50.956;5.320;2023-04-26T04:15:29;13.35;;;6.18;;
29452;SDS011;16424;50.956;5.320;2023-04-26T04:17:55;12.30;;;6.88;;
29452;SDS011;16424;50.956;5.320;2023-04-26T04:20:20;13.52;;;7.28;;
29452;SDS011;16424;50.956;5.320;2023-04-26T04:22:46;15.13;;;7.70;;
29452;SDS011;16424;50.956;5.320;2023-04-26T04:25:12;16.13;;;7.07;;
29452;SDS011;16424;50.956;5.320;2023-04-26T04:27:38;17.92;;;7.80;;
29452;SDS011;16424;50.956;5.320;2023-04-26T04:30:06;13.05;;;7.10;;
29452;SDS011;16424;50.956;5.320;2023-04-26T04:32:33;14.85;;;6.97;;
29452;SDS011;16424;50.956;5.320;2023-04-26T04:34:59;15.70;;;7.65;;
29452;SDS011;16424;50.956;5.320;2023-04-26T04:37:25;14.52;;;7.70;;
29452;SDS011;16424;50.956;5.320;2023-04-26T04:39:51;20.80;;;7.57;;
29452;SDS011;16424;50.956;5.320;2023-04-26T04:42:17;16.88;;;7.38;;
29452;SDS011;16424;50.956;5.320;2023-04-26T04:44:43;22.20;;;7.15;;
29452;SDS011;16424;50.956;5.320;2023-04-26T04:47:10;45.08;;;9.82;;
29452;SDS011;16424;50.956;5.320;2023-04-26T04:49:36;31.02;;;8.85;;
29452;SDS011;16424;50.956;5.320;2023-04-26T04:52:02;13.60;;;7.30;;
29452;SDS011;16424;50.956;5.320;2023-04-26T04:54:28;19.10;;;7.95;;
29452;SDS011;16424;50.956;5.320;2023-04-26T04:56:54;15.55;;;8.32;;
29452;SDS011;16424;50.956;5.320;2023-04-26T04:59:19;15.93;;;7.18;;
29452;SDS011;16424;50.956;5.320;2023-04-26T05:01:45;13.00;;;7.28;;
29452;SDS011;16424;50.956;5.320;2023-04-26T05:04:11;17.63;;;7.65;;
29452;SDS011;16424;50.956;5.320;2023-04-26T05:06:36;17.50;;;8.30;;
29452;SDS011;16424;50.956;5.320;2023-04-26T05:09:02;12.73;;;7.07;;
29452;SDS011;16424;50.956;5.320;2023-04-26T05:11:29;12.77;;;7.35;;
29452;SDS011;16424;50.956;5.320;2023-04-26T05:13:56;17.15;;;7.97;;
29452;SDS011;16424;50.956;5.320;2023-04-26T05:16:22;10.93;;;7.07;;
29452;SDS011;16424;50.956;5.320;2023-04-26T05:18:48;21.73;;;8.93;;
29452;SDS011;16424;50.956;5.320;2023-04-26T05:21:14;15.13;;;7.13;;
29452;SDS011;16424;50.956;5.320;2023-04-26T05:23:39;12.13;;;7.35;;
29452;SDS011;16424;50.956;5.320;2023-04-26T05:26:06;10.95;;;6.47;;
29452;SDS011;16424;50.956;5.320;2023-04-26T05:28:32;11.35;;;6.35;;
29452;SDS011;16424;50.956;5.320;2023-04-26T05:30:58;14.15;;;6.85;;
29452;SDS011;16424;50.956;5.320;2023-04-26T05:33:25;16.05;;;7.40;;
29452;SDS011;16424;50.956;5.320;2023-04-26T05:35:52;11.85;;;6.13;;
29452;SDS011;16424;50.956;5.320;2023-04-26T05:38:18;13.07;;;6.03;;
29452;SDS011;16424;50.956;5.320;2023-04-26T05:40:44;13.20;;;6.47;;
29452;SDS011;16424;50.956;5.320;2023-04-26T05:43:12;12.50;;;8.45;;
29452;SDS011;16424;50.956;5.320;2023-04-26T05:45:38;10.27;;;6.45;;
29452;SDS011;16424;50.956;5.320;2023-04-26T05:48:03;11.68;;;5.40;;
29452;SDS011;16424;50.956;5.320;2023-04-26T05:50:29;11.20;;;5.93;;
29452;SDS011;16424;50.956;5.320;2023-04-26T05:52:55;9.90;;;5.38;;
29452;SDS011;16424;50.956;5.320;2023-04-26T05:55:21;15.07;;;6.65;;
29452;SDS011;16424;50.956;5.320;2023-04-26T05:57:47;8.85;;;6.25;;
29452;SDS011;16424;50.956;5.320;2023-04-26T06:00:13;14.90;;;7.22;;
29452;SDS011;16424;50.956;5.320;2023-04-26T06:02:39;14.90;;;7.03;;
29452;SDS011;16424;50.956;5.320;2023-04-26T06:05:05;13.75;;;7.40;;
29452;SDS011;16424;50.956;5.320;2023-04-26T06:07:32;14.48;;;8.20;;
29452;SDS011;16424;50.956;5.320;2023-04-26T06:09:59;12.48;;;7.43;;
29452;SDS011;16424;50.956;5.320;2023-04-26T06:12:26;14.82;;;7.80;;
29452;SDS011;16424;50.956;5.320;2023-04-26T06:14:51;14.95;;;7.55;;
29452;SDS011;16424;50.956;5.320;2023-04-26T06:17:17;22.42;;;9.68;;
29452;SDS011;16424;50.956;5.320;2023-04-26T06:19:42;18.70;;;9.80;;
29452;SDS011;16424;50.956;5.320;2023-04-26T06:22:08;22.95;;;9.15;;
29452;SDS011;16424;50.956;5.320;2023-04-26T06:24:34;22.38;;;10.18;;
29452;SDS011;16424;50.956;5.320;2023-04-26T06:26:59;23.60;;;9.88;;
29452;SDS011;16424;50.956;5.320;2023-04-26T06:29:25;18.50;;;9.25;;
29452;SDS011;16424;50.956;5.320;2023-04-26T06:31:50;28.05;;;9.57;;
29452;SDS011;16424;50.956;5.320;2023-04-26T06:34:16;21.67;;;9.02;;
29452;SDS011;16424;50.956;5.320;2023-04-26T06:36:42;21.40;;;9.52;;
29452;SDS011;16424;50.956;5.320;2023-04-26T06:39:07;24.67;;;10.82;;
29452;SDS011;16424;50.956;5.320;2023-04-26T06:41:33;19.67;;;8.90;;
29452;SDS011;16424;50.956;5.320;2023-04-26T06:43:59;18.23;;;9.25;;
29452;SDS011;16424;50.956;5.320;2023-04-26T06:46:24;17.02;;;9.52;;
29452;SDS011;16424;50.956;5.320;2023-04-26T06:48:53;26.90;;;9.77;;
29452;SDS011;16424;50.956;5.320;2023-04-26T06:51:20;20.35;;;10.75;;
29452;SDS011;16424;50.956;5.320;2023-04-26T06:53:45;24.48;;;9.82;;
29452;SDS011;16424;50.956;5.320;2023-04-26T06:56:12;18.60;;;9.85;;
29452;SDS011;16424;50.956;5.320;2023-04-26T06:58:37;19.88;;;9.13;;
29452;SDS011;16424;50.956;5.320;2023-04-26T07:01:03;20.10;;;9.77;;
29452;SDS011;16424;50.956;5.320;2023-04-26T07:03:30;18.88;;;9.95;;
29452;SDS011;16424;50.956;5.320;2023-04-26T07:05:56;16.70;;;9.70;;
29452;SDS011;16424;50.956;5.320;2023-04-26T07:08:22;17.35;;;10.50;;
29452;SDS011;16424;50.956;5.320;2023-04-26T07:10:47;18.90;;;9.98;;
29452;SDS011;16424;50.956;5.320;2023-04-26T07:13:13;18.05;;;10.25;;
29452;SDS011;16424;50.956;5.320;2023-04-26T07:15:38;21.48;;;9.68;;
29452;SDS011;16424;50.956;5.320;2023-04-26T07:18:04;17.05;;;9.23;;
29452;SDS011;16424;50.956;5.320;2023-04-26T07:20:30;17.20;;;9.40;;
29452;SDS011;16424;50.956;5.320;2023-04-26T07:22:56;18.63;;;9.88;;
29452;SDS011;16424;50.956;5.320;2023-04-26T07:25:21;15.70;;;9.23;;
29452;SDS011;16424;50.956;5.320;2023-04-26T07:27:47;21.75;;;10.23;;
29452;SDS011;16424;50.956;5.320;2023-04-26T07:30:15;17.33;;;9.27;;
29452;SDS011;16424;50.956;5.320;2023-04-26T07:32:41;16.83;;;8.80;;
29452;SDS011;16424;50.956;5.320;2023-04-26T07:35:06;11.45;;;5.78;;
29452;SDS011;16424;50.956;5.320;2023-04-26T07:37:34;14.13;;;6.85;;
29452;SDS011;16424;50.956;5.320;2023-04-26T07:40:00;16.08;;;5.80;;
29452;SDS011;16424;50.956;5.320;2023-04-26T07:42:25;12.13;;;4.45;;
29452;SDS011;16424;50.956;5.320;2023-04-26T07:44:51;9.90;;;5.03;;
29452;SDS011;16424;50.956;5.320;2023-04-26T07:47:17;13.07;;;5.40;;
29452;SDS011;16424;50.956;5.320;2023-04-26T07:49:42;13.88;;;4.88;;
29452;SDS011;16424;50.956;5.320;2023-04-26T07:52:08;11.70;;;5.40;;
29452;SDS011;16424;50.956;5.320;2023-04-26T07:54:34;11.20;;;5.35;;
29452;SDS011;16424;50.956;5.320;2023-04-26T07:56:59;13.32;;;5.70;;
29452;SDS011;16424;50.956;5.320;2023-04-26T07:59:25;15.52;;;5.53;;
29452;SDS011;16424;50.956;5.320;2023-04-26T08:01:51;11.75;;;6.05;;
29452;SDS011;16424;50.956;5.320;2023-04-26T08:04:30;11.77;;;4.70;;
29452;SDS011;16424;50.956;5.320;2023-04-26T08:06:57;10.90;;;5.00;;
29452;SDS011;16424;50.956;5.320;2023-04-26T08:09:23;10.90;;;4.78;;
29452;SDS011;16424;50.956;5.320;2023-04-26T08:11:49;13.95;;;4.50;;
29452;SDS011;16424;50.956;5.320;2023-04-26T08:14:14;11.43;;;4.00;;
29452;SDS011;16424;50.956;5.320;2023-04-26T08:16:40;10.73;;;4.55;;
29452;SDS011;16424;50.956;5.320;2023-04-26T08:19:06;10.63;;;3.63;;
29452;SDS011;16424;50.956;5.320;2023-04-26T08:21:31;9.00;;;3.92;;
29452;SDS011;16424;50.956;5.320;2023-04-26T08:23:57;8.32;;;2.22;;
29452;SDS011;16424;50.956;5.320;2023-04-26T08:26:23;8.43;;;2.80;;
29452;SDS011;16424;50.956;5.320;2023-04-26T08:28:48;9.77;;;2.83;;
29452;SDS011;16424;50.956;5.320;2023-04-26T08:31:14;8.20;;;2.42;;
29452;SDS011;16424;50.956;5.320;2023-04-26T08:33:39;13.73;;;3.25;;
29452;SDS011;16424;50.956;5.320;2023-04-26T08:36:05;7.75;;;2.85;;
29452;SDS011;16424;50.956;5.320;2023-04-26T08:38:32;6.22;;;2.20;;
29452;SDS011;16424;50.956;5.320;2023-04-26T08:40:58;6.30;;;1.42;;
29452;SDS011;16424;50.956;5.320;2023-04-26T08:43:27;5.00;;;1.50;;
29452;SDS011;16424;50.956;5.320;2023-04-26T08:45:53;3.47;;;1.30;;
29452;SDS011;16424;50.956;5.320;2023-04-26T08:48:19;5.22;;;1.98;;
29452;SDS011;16424;50.956;5.320;2023-04-26T08:50:46;9.38;;;1.98;;
29452;SDS011;16424;50.956;5.320;2023-04-26T08:53:15;6.47;;;1.65;;
29452;SDS011;16424;50.956;5.320;2023-04-26T08:55:47;7.30;;;2.38;;
29452;SDS011;16424;50.956;5.320;2023-04-26T08:58:13;7.97;;;2.08;;
29452;SDS011;16424;50.956;5.320;2023-04-26T09:00:41;8.82;;;1.70;;
29452;SDS011;16424;50.956;5.320;2023-04-26T09:03:09;7.10;;;2.42;;
29452;SDS011;16424;50.956;5.320;2023-04-26T09:05:35;8.95;;;2.53;;
29452;SDS011;16424;50.956;5.320;2023-04-26T09:08:02;9.57;;;2.60;;
29452;SDS011;16424;50.956;5.320;2023-04-26T09:10:30;4.75;;;2.22;;
29452;SDS011;16424;50.956;5.320;2023-04-26T09:12:56;9.02;;;3.28;;
29452;SDS011;16424;50.956;5.320;2023-04-26T09:15:22;6.63;;;1.92;;
29452;SDS011;16424;50.956;5.320;2023-04-26T09:17:50;7.22;;;2.65;;
29452;SDS011;16424;50.956;5.320;2023-04-26T09:20:23;9.50;;;2.38;;
29452;SDS011;16424;50.956;5.320;2023-04-26T09:22:55;9.60;;;1.98;;
29452;SDS011;16424;50.956;5.320;2023-04-26T09:25:30;11.85;;;3.60;;
29452;SDS011;16424;50.956;5.320;2023-04-26T09:27:56;6.93;;;2.25;;
29452;SDS011;16424;50.956;5.320;2023-04-26T09:30:23;8.68;;;2.58;;
29452;SDS011;16424;50.956;5.320;2023-04-26T09:35:30;14.27;;;2.90;;
29452;SDS011;16424;50.956;5.320;2023-04-26T09:38:00;7.18;;;2.88;;
29452;SDS011;16424;50.956;5.320;2023-04-26T09:40:29;5.47;;;2.50;;
29452;SDS011;16424;50.956;5.320;2023-04-26T09:42:57;12.77;;;2.50;;
29452;SDS011;16424;50.956;5.320;2023-04-26T09:45:29;12.18;;;3.35;;
29452;SDS011;16424;50.956;5.320;2023-04-26T09:48:11;4.85;;;2.13;;
29452;SDS011;16424;50.956;5.320;2023-04-26T09:50:41;7.97;;;2.42;;
29452;SDS011;16424;50.956;5.320;2023-04-26T09:53:09;5.63;;;2.33;;
29452;SDS011;16424;50.956;5.320;2023-04-26T09:55:35;6.28;;;2.20;;
29452;SDS011;16424;50.956;5.320;2023-04-26T09:58:06;5.15;;;1.98;;
29452;SDS011;16424;50.956;5.320;2023-04-26T10:00:33;8.73;;;2.55;;
29452;SDS011;16424;50.956;5.320;2023-04-26T10:03:01;6.18;;;2.25;;
29452;SDS011;16424;50.956;5.320;2023-04-26T10:05:28;9.38;;;2.47;;
29452;SDS011;16424;50.956;5.320;2023-04-26T10:07:56;5.38;;;2.22;;
29452;SDS011;16424;50.956;5.320;2023-04-26T10:10:22;7.07;;;2.00;;
29452;SDS011;16424;50.956;5.320;2023-04-26T10:12:47;5.55;;;2.40;;
29452;SDS011;16424;50.956;5.320;2023-04-26T10:15:13;6.88;;;2.00;;
29452;SDS011;16424;50.956;5.320;2023-04-26T10:17:39;3.92;;;2.00;;
29452;SDS011;16424;50.956;5.320;2023-04-26T10:20:07;4.63;;;2.00;;
29452;SDS011;16424;50.956;5.320;2023-04-26T10:22:39;4.68;;;2.00;;
29452;SDS011;16424;50.956;5.320;2023-04-26T10:25:08;8.30;;;2.90;;
29452;SDS011;16424;50.956;5.320;2023-04-26T10:35:17;4.78;;;1.67;;
29452;SDS011;16424;50.956;5.320;2023-04-26T10:40:25;4.80;;;1.60;;
29452;SDS011;16424;50.956;5.320;2023-04-26T10:45:38;4.43;;;1.50;;
29452;SDS011;16424;50.956;5.320;2023-04-26T10:53:27;5.20;;;1.58;;
29452;SDS011;16424;50.956;5.320;2023-04-26T10:55:53;5.10;;;1.50;;
29452;SDS011;16424;50.956;5.320;2023-04-26T10:58:26;6.38;;;1.30;;
29452;SDS011;16424;50.956;5.320;2023-04-26T11:01:05;7.88;;;1.75;;
29452;SDS011;16424;50.956;5.320;2023-04-26T11:03:42;3.55;;;1.58;;
29452;SDS011;16424;50.956;5.320;2023-04-26T11:06:49;7.35;;;1.55;;
29452;SDS011;16424;50.956;5.320;2023-04-26T11:12:12;8.10;;;1.88;;
29452;SDS011;16424;50.956;5.320;2023-04-26T11:14:40;4.03;;;1.40;;
29452;SDS011;16424;50.956;5.320;2023-04-26T11:17:07;6.10;;;1.38;;
29452;SDS011;16424;50.956;5.320;2023-04-26T11:19:34;2.47;;;1.38;;
29452;SDS011;16424;50.956;5.320;2023-04-26T11:22:00;4.30;;;1.90;;
29452;SDS011;16424;50.956;5.320;2023-04-26T11:24:27;3.15;;;1.50;;
29452;SDS011;16424;50.956;5.320;2023-04-26T11:26:55;7.18;;;1.77;;
29452;SDS011;16424;50.956;5.320;2023-04-26T11:29:22;2.97;;;1.65;;
29452;SDS011;16424;50.956;5.320;2023-04-26T11:31:55;5.38;;;1.60;;
29452;SDS011;16424;50.956;5.320;2023-04-26T11:34:22;5.18;;;2.35;;
29452;SDS011;16424;50.956;5.320;2023-04-26T11:36:55;6.23;;;2.10;;
29452;SDS011;16424;50.956;5.320;2023-04-26T11:39:21;2.75;;;1.52;;
29452;SDS011;16424;50.956;5.320;2023-04-26T11:41:47;6.60;;;2.10;;
29452;SDS011;16424;50.956;5.320;2023-04-26T11:44:17;4.35;;;1.50;;
29452;SDS011;16424;50.956;5.320;2023-04-26T11:46:44;3.58;;;1.50;;
29452;SDS011;16424;50.956;5.320;2023-04-26T11:49:13;4.60;;;1.92;;
29452;SDS011;16424;50.956;5.320;2023-04-26T11:51:40;4.00;;;1.42;;
29452;SDS011;16424;50.956;5.320;2023-04-26T11:54:06;8.65;;;2.15;;
29452;SDS011;16424;50.956;5.320;2023-04-26T11:56:31;4.18;;;2.20;;
29452;SDS011;16424;50.956;5.320;2023-04-26T11:58:57;4.50;;;1.55;;
29452;SDS011;16424;50.956;5.320;2023-04-26T12:01:24;5.68;;;1.60;;
29452;SDS011;16424;50.956;5.320;2023-04-26T12:03:51;2.22;;;1.52;;
29452;SDS011;16424;50.956;5.320;2023-04-26T12:06:19;4.20;;;1.55;;
29452;SDS011;16424;50.956;5.320;2023-04-26T12:08:49;4.35;;;1.80;;
29452;SDS011;16424;50.956;5.320;2023-04-26T12:11:16;15.23;;;2.38;;
29452;SDS011;16424;50.956;5.320;2023-04-26T12:13:42;3.50;;;1.92;;
29452;SDS011;16424;50.956;5.320;2023-04-26T12:16:10;5.93;;;2.05;;
29452;SDS011;16424;50.956;5.320;2023-04-26T12:18:37;3.33;;;1.80;;
29452;SDS011;16424;50.956;5.320;2023-04-26T12:21:02;3.97;;;1.80;;
29452;SDS011;16424;50.956;5.320;2023-04-26T12:23:35;6.97;;;2.33;;
29452;SDS011;16424;50.956;5.320;2023-04-26T12:28:28;5.57;;;1.70;;
29452;SDS011;16424;50.956;5.320;2023-04-26T12:30:54;3.45;;;1.63;;
29452;SDS011;16424;50.956;5.320;2023-04-26T12:33:20;2.65;;;1.48;;
29452;SDS011;16424;50.956;5.320;2023-04-26T12:35:47;6.95;;;1.95;;
29452;SDS011;16424;50.956;5.320;2023-04-26T12:38:14;4.05;;;1.55;;
29452;SDS011;16424;50.956;5.320;2023-04-26T12:40:40;7.63;;;1.80;;
29452;SDS011;16424;50.956;5.320;2023-04-26T12:43:06;7.68;;;2.03;;
29452;SDS011;16424;50.956;5.320;2023-04-26T12:45:32;4.50;;;1.73;;
29452;SDS011;16424;50.956;5.320;2023-04-26T12:47:58;5.35;;;1.70;;
29452;SDS011;16424;50.956;5.320;2023-04-26T12:50:24;3.70;;;1.30;;
29452;SDS011;16424;50.956;5.320;2023-04-26T12:52:50;3.17;;;1.42;;
29452;SDS011;16424;50.956;5.320;2023-04-26T12:55:15;4.47;;;1.80;;
29452;SDS011;16424;50.956;5.320;2023-04-26T12:57:42;3.88;;;1.70;;
29452;SDS011;16424;50.956;5.320;2023-04-26T13:00:10;2.60;;;1.73;;
29452;SDS011;16424;50.956;5.320;2023-04-26T13:02:37;7.78;;;2.25;;
29452;SDS011;16424;50.956;5.320;2023-04-26T13:05:03;3.60;;;1.52;;
29452;SDS011;16424;50.956;5.320;2023-04-26T13:07:31;4.72;;;1.80;;
29452;SDS011;16424;50.956;5.320;2023-04-26T13:09:57;4.53;;;1.73;;
29452;SDS011;16424;50.956;5.320;2023-04-26T13:12:24;5.18;;;1.67;;
29452;SDS011;16424;50.956;5.320;2023-04-26T13:14:49;4.13;;;1.50;;
29452;SDS011;16424;50.956;5.320;2023-04-26T13:17:15;5.68;;;2.22;;
29452;SDS011;16424;50.956;5.320;2023-04-26T13:19:41;4.70;;;1.88;;
29452;SDS011;16424;50.956;5.320;2023-04-26T13:22:06;3.08;;;1.55;;
29452;SDS011;16424;50.956;5.320;2023-04-26T13:24:35;4.53;;;1.95;;
29452;SDS011;16424;50.956;5.320;2023-04-26T13:27:01;2.83;;;1.67;;
29452;SDS011;16424;50.956;5.320;2023-04-26T13:29:27;4.43;;;2.00;;
29452;SDS011;16424;50.956;5.320;2023-04-26T13:31:55;2.40;;;1.67;;
29452;SDS011;16424;50.956;5.320;2023-04-26T13:34:21;3.03;;;1.63;;
29452;SDS011;16424;50.956;5.320;2023-04-26T13:36:47;5.57;;;2.25;;
29452;SDS011;16424;50.956;5.320;2023-04-26T13:39:13;3.25;;;1.50;;
29452;SDS011;16424;50.956;5.320;2023-04-26T13:41:39;4.40;;;2.15;;
29452;SDS011;16424;50.956;5.320;2023-04-26T13:44:04;4.13;;;2.10;;
29452;SDS011;16424;50.956;5.320;2023-04-26T13:46:30;14.45;;;2.53;;
29452;SDS011;16424;50.956;5.320;2023-04-26T13:48:56;4.88;;;2.10;;
29452;SDS011;16424;50.956;5.320;2023-04-26T13:51:22;5.53;;;2.00;;
29452;SDS011;16424;50.956;5.320;2023-04-26T13:53:49;3.88;;;1.92;;
29452;SDS011;16424;50.956;5.320;2023-04-26T13:56:15;3.72;;;1.73;;
29452;SDS011;16424;50.956;5.320;2023-04-26T13:58:42;5.55;;;2.00;;
29452;SDS011;16424;50.956;5.320;2023-04-26T14:01:11;3.95;;;1.90;;
29452;SDS011;16424;50.956;5.320;2023-04-26T14:03:37;5.25;;;1.92;;
29452;SDS011;16424;50.956;5.320;2023-04-26T14:06:04;6.07;;;2.15;;
29452;SDS011;16424;50.956;5.320;2023-04-26T14:08:29;8.85;;;2.33;;
29452;SDS011;16424;50.956;5.320;2023-04-26T14:10:55;5.32;;;2.00;;
29452;SDS011;16424;50.956;5.320;2023-04-26T14:13:21;4.97;;;2.10;;
29452;SDS011;16424;50.956;5.320;2023-04-26T14:15:46;5.35;;;2.17;;
29452;SDS011;16424;50.956;5.320;2023-04-26T14:18:13;5.88;;;2.35;;
29452;SDS011;16424;50.956;5.320;2023-04-26T14:20:39;4.90;;;2.15;;
29452;SDS011;16424;50.956;5.320;2023-04-26T14:23:04;7.97;;;2.38;;
29452;SDS011;16424;50.956;5.320;2023-04-26T14:25:30;3.83;;;1.80;;
29452;SDS011;16424;50.956;5.320;2023-04-26T14:27:55;3.30;;;2.28;;
29452;SDS011;16424;50.956;5.320;2023-04-26T14:30:21;7.15;;;2.65;;
29452;SDS011;16424;50.956;5.320;2023-04-26T14:32:48;9.00;;;2.17;;
29452;SDS011;16424;50.956;5.320;2023-04-26T14:35:14;8.15;;;2.15;;
29452;SDS011;16424;50.956;5.320;2023-04-26T14:37:40;8.43;;;2.55;;
29452;SDS011;16424;50.956;5.320;2023-04-26T14:40:05;5.80;;;2.42;;
29452;SDS011;16424;50.956;5.320;2023-04-26T14:42:32;3.88;;;2.60;;
29452;SDS011;16424;50.956;5.320;2023-04-26T14:44:58;7.45;;;3.10;;
29452;SDS011;16424;50.956;5.320;2023-04-26T14:47:23;5.78;;;2.60;;
29452;SDS011;16424;50.956;5.320;2023-04-26T14:49:50;4.88;;;2.20;;
29452;SDS011;16424;50.956;5.320;2023-04-26T14:52:15;7.13;;;2.38;;
29452;SDS011;16424;50.956;5.320;2023-04-26T14:54:41;3.83;;;2.80;;
29452;SDS011;16424;50.956;5.320;2023-04-26T14:57:07;8.88;;;2.50;;
29452;SDS011;16424;50.956;5.320;2023-04-26T14:59:34;7.22;;;2.75;;
29452;SDS011;16424;50.956;5.320;2023-04-26T15:02:00;6.38;;;2.80;;
29452;SDS011;16424;50.956;5.320;2023-04-26T15:04:26;3.65;;;2.00;;